createdAt,value
2022-12-16T00:01:42.457Z,13.40
2022-12-16T00:02:44.010Z,12.57
2022-12-16T00:03:52.006Z,14.57
2022-12-16T00:04:53.628Z,12.85
2022-12-16T00:05:55.144Z,12.77
2022-12-16T00:06:56.585Z,12.45
2022-12-16T00:09:00.190Z,12.45
2022-12-16T00:10:01.720Z,12.38
2022-12-16T00:11:03.706Z,12.40
2022-12-16T00:12:05.526Z,13.40
2022-12-16T00:13:10.517Z,12.30
2022-12-16T00:14:12.560Z,13.30
2022-12-16T00:15:14.113Z,12.98
2022-12-16T00:16:16.942Z,13.05
2022-12-16T00:17:18.466Z,12.93
2022-12-16T00:18:20.281Z,14.25
2022-12-16T00:19:21.790Z,12.90
2022-12-16T00:20:23.213Z,13.35
2022-12-16T00:22:30.421Z,13.02
2022-12-16T00:23:32.740Z,13.30
2022-12-16T00:24:34.524Z,12.52
2022-12-16T00:25:35.959Z,13.77
2022-12-16T00:27:38.872Z,13.10
2022-12-16T00:28:40.988Z,12.52
2022-12-16T00:29:42.508Z,13.27
2022-12-16T00:30:44.479Z,14.57
2022-12-16T00:31:48.224Z,13.88
2022-12-16T00:32:49.833Z,13.98
2022-12-16T00:33:55.441Z,14.82
2022-12-16T00:34:56.921Z,15.50
2022-12-16T00:35:58.404Z,15.68
2022-12-16T00:36:59.872Z,14.52
2022-12-16T00:38:01.452Z,15.40
2022-12-16T00:39:02.947Z,15.07
2022-12-16T00:40:04.901Z,13.23
2022-12-16T00:41:06.492Z,14.05
2022-12-16T00:42:08.137Z,12.93
2022-12-16T00:43:09.715Z,12.50
2022-12-16T00:44:11.153Z,13.32
2022-12-16T00:46:14.156Z,11.82
2022-12-16T00:47:15.680Z,12.43
2022-12-16T00:48:17.506Z,13.75
2022-12-16T00:49:18.998Z,12.80
2022-12-16T00:51:22.256Z,14.68
2022-12-16T00:52:24.101Z,14.63
2022-12-16T00:53:25.864Z,16.77
2022-12-16T00:54:27.390Z,18.20
2022-12-16T00:55:29.348Z,18.30
2022-12-16T00:56:30.828Z,19.23
2022-12-16T00:57:32.281Z,15.30
2022-12-16T00:58:33.789Z,16.83
2022-12-16T00:59:35.244Z,16.52
2022-12-16T01:00:36.809Z,17.02
2022-12-16T01:01:38.360Z,17.45
2022-12-16T01:02:40.797Z,16.30
2022-12-16T01:03:42.863Z,15.80
2022-12-16T01:04:44.452Z,16.75
2022-12-16T01:05:45.925Z,17.08
2022-12-16T01:06:47.545Z,18.17
2022-12-16T01:07:49.013Z,18.48
2022-12-16T01:08:50.437Z,17.17
2022-12-16T01:09:52.385Z,16.55
2022-12-16T01:10:57.329Z,16.48
2022-12-16T01:11:58.793Z,16.10
2022-12-16T01:13:00.449Z,16.35
2022-12-16T01:14:02.233Z,16.60
2022-12-16T01:15:05.309Z,14.13
2022-12-16T01:16:06.946Z,14.13
2022-12-16T01:17:08.744Z,13.73
2022-12-16T01:18:11.357Z,15.77
2022-12-16T01:19:12.827Z,15.57
2022-12-16T01:20:14.377Z,15.65
2022-12-16T01:21:15.957Z,16.55
2022-12-16T01:22:17.811Z,15.07
2022-12-16T01:23:19.263Z,15.60
2022-12-16T01:24:20.741Z,15.75
2022-12-16T01:25:22.176Z,15.85
2022-12-16T01:26:24.013Z,14.57
2022-12-16T01:27:25.823Z,15.70
2022-12-16T01:28:30.347Z,15.88
2022-12-16T01:29:32.145Z,16.58
2022-12-16T01:30:33.611Z,15.23
2022-12-16T01:31:35.247Z,16.35
2022-12-16T01:32:36.970Z,17.73
2022-12-16T01:33:38.502Z,16.10
2022-12-16T01:34:40.125Z,16.20
2022-12-16T01:35:55.603Z,15.77
2022-12-16T01:36:57.700Z,15.02
2022-12-16T01:37:59.472Z,15.52
2022-12-16T01:39:01.198Z,15.90
2022-12-16T01:40:03.240Z,15.93
2022-12-16T01:41:05.012Z,16.23
2022-12-16T01:42:24.688Z,15.15
2022-12-16T01:43:28.264Z,15.65
2022-12-16T01:44:29.767Z,15.15
2022-12-16T01:45:31.604Z,15.60
2022-12-16T01:46:33.205Z,15.68
2022-12-16T01:47:34.749Z,16.20
2022-12-16T01:48:36.480Z,16.85
2022-12-16T01:49:40.153Z,16.25
2022-12-16T01:50:42.152Z,17.08
2022-12-16T01:51:50.459Z,17.50
2022-12-16T01:52:55.440Z,16.88
2022-12-16T01:53:59.004Z,16.60
2022-12-16T01:55:09.489Z,16.10
2022-12-16T01:56:12.214Z,16.83
2022-12-16T01:57:15.904Z,17.05
2022-12-16T01:58:25.042Z,15.63
2022-12-16T01:59:28.483Z,16.88
2022-12-16T02:00:29.942Z,16.67
2022-12-16T02:01:31.592Z,16.30
2022-12-16T02:02:33.793Z,17.17
2022-12-16T02:03:36.973Z,16.20
2022-12-16T02:05:01.716Z,16.52
2022-12-16T02:06:04.484Z,16.55
2022-12-16T02:07:05.958Z,16.60
2022-12-16T02:08:17.362Z,16.73
2022-12-16T02:09:19.141Z,16.58
2022-12-16T02:10:23.146Z,17.33
2022-12-16T02:11:32.276Z,16.63
2022-12-16T02:12:33.711Z,16.27
2022-12-16T02:13:38.269Z,16.38
2022-12-16T02:15:03.026Z,16.27
2022-12-16T02:16:07.623Z,15.90
2022-12-16T02:17:14.135Z,16.05
2022-12-16T02:18:24.437Z,16.58
2022-12-16T02:19:28.886Z,16.45
2022-12-16T02:20:30.364Z,16.70
2022-12-16T02:21:42.537Z,16.42
2022-12-16T02:23:05.468Z,15.88
2022-12-16T02:24:07.227Z,16.63
2022-12-16T02:25:28.316Z,16.50
2022-12-16T02:26:39.012Z,16.05
2022-12-16T02:27:40.561Z,16.25
2022-12-16T02:28:51.419Z,16.73
2022-12-16T02:30:08.451Z,16.77
2022-12-16T02:31:10.009Z,16.55
2022-12-16T02:32:23.814Z,17.60
2022-12-16T02:33:34.703Z,16.42
2022-12-16T02:34:36.351Z,15.38
2022-12-16T03:58:47.437Z,14.52
2022-12-16T03:59:48.927Z,16.92
2022-12-16T04:00:50.737Z,19.27
2022-12-16T04:01:52.409Z,18.05
2022-12-16T04:02:54.087Z,18.80
2022-12-16T04:03:55.817Z,18.45
2022-12-16T04:22:49.791Z,13.88
2022-12-16T05:01:28.231Z,13.50
2022-12-16T05:21:33.079Z,13.38
2022-12-16T05:22:53.031Z,15.20
2022-12-16T05:24:13.277Z,14.38
2022-12-16T05:25:33.113Z,14.13
2022-12-16T05:50:57.411Z,13.88
2022-12-16T05:52:17.502Z,14.70
2022-12-16T05:53:37.526Z,15.75
2022-12-16T05:54:57.816Z,15.32
2022-12-16T05:56:18.199Z,15.43
2022-12-16T05:57:38.361Z,16.33
2022-12-16T05:58:58.148Z,18.15
2022-12-16T06:00:18.237Z,18.88
2022-12-16T06:01:38.260Z,16.52
2022-12-16T06:11:00.193Z,13.52
2022-12-16T06:12:20.141Z,18.25
2022-12-16T06:13:40.381Z,19.67
2022-12-16T06:15:00.695Z,17.88
2022-12-16T06:16:21.063Z,16.40
2022-12-16T06:17:41.025Z,17.45
2022-12-16T06:19:01.234Z,15.35
2022-12-16T06:20:21.552Z,16.20
2022-12-16T06:21:41.735Z,16.23
2022-12-16T06:23:01.684Z,15.82
2022-12-16T06:24:21.821Z,17.00
2022-12-16T06:25:42.103Z,16.92
2022-12-16T06:27:02.100Z,16.55
2022-12-16T06:28:22.083Z,16.25
2022-12-16T06:29:41.983Z,17.58
2022-12-16T06:31:01.916Z,18.05
2022-12-16T06:32:21.786Z,17.55
2022-12-16T06:33:41.939Z,15.88
2022-12-16T06:35:02.282Z,16.83
2022-12-16T06:36:22.876Z,17.25
2022-12-16T06:37:50.858Z,19.55
2022-12-16T06:39:10.803Z,19.27
2022-12-16T06:40:30.816Z,20.13
2022-12-16T06:41:50.949Z,20.77
2022-12-16T06:43:11.213Z,20.90
2022-12-16T06:44:31.498Z,20.63
2022-12-16T06:45:51.456Z,18.23
2022-12-16T06:47:11.709Z,17.10
2022-12-16T06:48:31.937Z,17.30
2022-12-16T06:49:59.761Z,17.40
2022-12-16T06:51:19.625Z,17.92
2022-12-16T06:52:39.633Z,16.95
2022-12-16T06:53:59.519Z,16.42
2022-12-16T06:55:19.350Z,18.20
2022-12-16T06:56:39.355Z,17.98
2022-12-16T06:57:59.395Z,17.42
2022-12-16T06:59:19.351Z,17.05
2022-12-16T07:00:39.357Z,17.85
2022-12-16T07:01:59.618Z,16.58
2022-12-16T07:03:19.839Z,17.20
2022-12-16T07:04:40.028Z,16.85
2022-12-16T07:06:00.227Z,16.75
2022-12-16T07:07:20.546Z,16.42
2022-12-16T07:08:40.679Z,18.33
2022-12-16T07:10:00.588Z,16.60
2022-12-16T07:11:20.681Z,18.92
2022-12-16T07:12:40.973Z,17.08
2022-12-16T07:14:01.266Z,18.67
2022-12-16T07:15:21.135Z,17.50
2022-12-16T07:16:41.124Z,16.85
2022-12-16T07:18:03.989Z,17.75
2022-12-16T07:19:24.098Z,16.20
2022-12-16T07:20:43.998Z,18.13
2022-12-16T07:22:03.975Z,21.20
2022-12-16T07:23:24.072Z,18.88
2022-12-16T07:24:44.348Z,18.00
2022-12-16T07:26:04.456Z,17.30
2022-12-16T07:27:24.511Z,17.88
2022-12-16T07:28:44.445Z,19.20
2022-12-16T07:30:04.673Z,16.42
2022-12-16T07:31:24.735Z,16.35
2022-12-16T07:32:45.347Z,16.80
2022-12-16T07:34:05.323Z,17.88
2022-12-16T07:35:25.316Z,15.80
2022-12-16T09:24:39.019Z,19.88
2022-12-16T09:26:06.578Z,19.65
2022-12-16T09:27:37.451Z,20.48
2022-12-16T09:29:07.500Z,20.52
2022-12-16T09:32:27.595Z,19.67
2022-12-16T09:33:48.607Z,19.67
2022-12-16T09:36:45.748Z,20.42
2022-12-16T09:38:17.906Z,19.33
2022-12-16T09:39:38.532Z,20.40
2022-12-16T09:41:00.824Z,24.67
2022-12-16T09:43:08.384Z,24.08
2022-12-16T09:44:56.750Z,24.65
2022-12-16T09:46:51.064Z,25.70
2022-12-16T09:48:28.125Z,21.65
2022-12-16T09:50:07.934Z,20.33
2022-12-16T09:51:30.410Z,20.70
2022-12-16T09:52:54.019Z,22.77
2022-12-16T09:54:25.687Z,22.10
2022-12-16T09:56:08.815Z,19.58
2022-12-16T09:57:29.555Z,20.65
2022-12-16T09:58:53.810Z,20.60
2022-12-16T10:02:33.030Z,19.33
2022-12-16T10:03:59.742Z,23.80
2022-12-16T10:05:41.410Z,25.13
2022-12-16T10:07:08.651Z,23.25
2022-12-16T10:09:15.528Z,21.35
2022-12-16T10:11:03.337Z,23.20
2022-12-16T10:12:43.809Z,22.92
2022-12-16T10:14:32.342Z,26.55
2022-12-16T10:16:31.693Z,28.27
2022-12-16T10:18:11.330Z,45.80
2022-12-16T10:21:44.291Z,21.65
2022-12-16T10:23:24.427Z,25.17
2022-12-16T10:26:44.611Z,22.80
2022-12-16T10:28:06.425Z,22.83
2022-12-16T10:29:59.783Z,23.02
2022-12-16T10:31:31.966Z,21.58
2022-12-16T10:32:56.564Z,22.13
2022-12-16T10:34:16.948Z,21.27
2022-12-16T10:35:53.490Z,21.08
2022-12-16T10:37:20.653Z,21.02
2022-12-16T10:38:44.256Z,23.55
2022-12-16T10:40:17.454Z,23.65
2022-12-16T10:41:38.553Z,21.65
2022-12-16T10:43:03.603Z,23.67
2022-12-16T10:44:25.984Z,25.92
2022-12-16T10:45:51.504Z,21.58
2022-12-16T10:47:12.263Z,19.67
2022-12-16T10:52:54.183Z,18.23
2022-12-16T10:54:21.044Z,18.63
2022-12-16T10:55:47.681Z,18.67
2022-12-16T10:57:24.223Z,18.73
2022-12-16T10:59:15.363Z,20.17
2022-12-16T11:00:37.441Z,18.52
2022-12-16T11:01:58.555Z,19.15
2022-12-16T11:03:42.598Z,19.05
2022-12-16T11:05:04.364Z,18.33
2022-12-16T11:06:26.223Z,17.77
2022-12-16T11:07:46.881Z,17.33
2022-12-16T11:09:07.925Z,17.15
2022-12-16T11:10:48.682Z,15.55
2022-12-16T11:12:09.624Z,14.45
2022-12-16T11:13:40.005Z,16.23
2022-12-16T11:15:28.572Z,15.45
2022-12-16T11:16:50.540Z,14.77
2022-12-16T11:18:21.703Z,16.75
2022-12-16T11:19:43.381Z,17.55
2022-12-16T11:21:09.137Z,16.10
2022-12-16T11:22:36.168Z,15.57
2022-12-16T11:23:56.822Z,16.17
2022-12-16T11:25:26.853Z,16.55
2022-12-16T11:26:47.399Z,14.13
2022-12-16T11:29:46.021Z,17.02
2022-12-16T11:31:10.596Z,14.55
2022-12-16T11:32:42.802Z,14.75
2022-12-16T11:34:03.649Z,17.05
2022-12-16T11:35:25.820Z,16.17
2022-12-16T11:36:46.694Z,15.50
2022-12-16T11:38:30.658Z,14.68
2022-12-16T11:39:51.603Z,17.02
2022-12-16T11:41:12.819Z,15.05
2022-12-16T11:42:39.681Z,14.70
2022-12-16T11:44:14.935Z,18.20
2022-12-16T11:45:37.907Z,16.25
2022-12-16T11:46:58.874Z,15.75
2022-12-16T11:48:38.058Z,15.45
2022-12-16T11:49:59.457Z,15.75
2022-12-16T11:51:21.156Z,15.52
2022-12-16T11:52:42.349Z,16.13
2022-12-16T11:54:21.109Z,16.02
2022-12-16T11:56:06.582Z,14.90
2022-12-16T11:57:51.536Z,14.77
2022-12-16T12:01:01.361Z,15.23
2022-12-16T12:02:23.870Z,15.50
2022-12-16T12:03:45.507Z,16.08
2022-12-16T12:05:12.219Z,16.42
2022-12-16T12:06:40.835Z,15.43
2022-12-16T12:08:18.833Z,16.65
2022-12-16T12:09:44.386Z,16.45
2022-12-16T12:11:20.610Z,14.05
2022-12-16T12:12:54.573Z,17.40
2022-12-16T12:14:25.238Z,14.23
2022-12-16T12:15:46.026Z,16.25
2022-12-16T12:17:22.014Z,16.90
2022-12-16T12:18:58.494Z,16.70
2022-12-16T12:20:41.915Z,15.52
2022-12-16T12:22:08.954Z,15.73
2022-12-16T12:23:47.042Z,15.13
2022-12-16T12:25:32.796Z,15.82
2022-12-16T12:26:57.955Z,15.68
2022-12-16T12:28:24.133Z,16.77
2022-12-16T12:29:44.889Z,15.30
2022-12-16T12:31:19.706Z,17.08
2022-12-16T12:32:55.575Z,16.98
2022-12-16T12:34:26.319Z,16.67
2022-12-16T12:36:04.522Z,15.30
2022-12-16T12:37:42.371Z,14.68
2022-12-16T12:39:29.992Z,14.25
2022-12-16T12:41:02.867Z,16.25
2022-12-16T12:42:54.953Z,16.48
2022-12-16T12:44:56.215Z,15.38
2022-12-16T12:46:26.969Z,16.38
2022-12-16T12:55:42.789Z,15.13
2022-12-16T12:57:42.578Z,15.93
2022-12-16T12:59:16.598Z,16.05
2022-12-16T13:00:39.671Z,15.35
2022-12-16T13:06:08.174Z,14.50
2022-12-16T13:07:31.379Z,16.30
2022-12-16T13:08:52.367Z,16.30
2022-12-16T13:12:34.691Z,14.73
2022-12-16T13:19:53.572Z,14.32
2022-12-16T13:25:54.336Z,14.75
2022-12-16T13:27:36.837Z,13.88
2022-12-16T13:31:11.807Z,14.13
2022-12-16T13:32:42.915Z,14.30
2022-12-16T13:34:09.954Z,14.25
2022-12-16T13:37:33.922Z,13.48
2022-12-16T13:39:11.830Z,13.63
2022-12-16T13:40:49.942Z,15.27
2022-12-16T13:44:19.128Z,16.77
2022-12-16T13:45:42.289Z,16.65
2022-12-16T13:47:14.709Z,14.55
2022-12-16T13:49:08.205Z,13.75
2022-12-16T13:50:55.009Z,13.55
2022-12-16T13:52:28.664Z,14.98
2022-12-16T13:54:36.167Z,15.40
2022-12-16T13:56:15.679Z,14.85
2022-12-16T13:57:44.076Z,14.13
2022-12-16T13:59:17.115Z,14.75
2022-12-16T14:00:52.327Z,13.18
2022-12-16T14:02:39.336Z,14.77
2022-12-16T14:10:25.839Z,18.88
2022-12-16T14:17:12.920Z,17.60
2022-12-16T14:26:36.389Z,17.73
2022-12-16T14:28:35.116Z,16.48
2022-12-16T14:59:05.568Z,17.63
2022-12-16T15:00:25.933Z,18.90
2022-12-16T15:01:46.407Z,18.08
2022-12-16T15:03:09.026Z,19.67
2022-12-16T15:04:34.195Z,19.95
2022-12-16T15:05:56.872Z,21.35
2022-12-16T15:07:17.247Z,19.65
2022-12-16T15:08:37.733Z,19.40
2022-12-16T15:10:02.496Z,20.50
2022-12-16T15:11:24.100Z,21.20
2022-12-16T15:12:45.894Z,21.10
2022-12-16T15:15:29.076Z,19.27
2022-12-16T15:16:53.427Z,20.33
2022-12-16T15:18:15.126Z,18.95
2022-12-16T15:19:37.548Z,20.00
2022-12-16T15:21:03.181Z,21.50
2022-12-16T15:22:24.600Z,21.15
2022-12-16T15:23:46.555Z,20.33
2022-12-16T15:25:23.195Z,18.02
2022-12-16T15:26:44.449Z,22.42
2022-12-16T15:28:11.620Z,23.00
2022-12-16T15:29:43.676Z,21.40
2022-12-16T15:31:05.180Z,21.45
2022-12-16T15:32:41.709Z,20.75
2022-12-16T15:34:01.947Z,21.20
2022-12-16T15:35:22.109Z,20.30
2022-12-16T15:36:48.430Z,26.08
2022-12-16T15:38:08.626Z,20.90
2022-12-16T15:39:29.808Z,21.52
2022-12-16T15:40:52.404Z,22.60
2022-12-16T15:42:14.050Z,24.55
2022-12-16T15:43:46.421Z,23.75
2022-12-16T15:45:08.832Z,20.65
2022-12-16T15:46:39.214Z,24.13
2022-12-16T15:47:59.415Z,22.25
2022-12-16T15:49:20.040Z,20.85
2022-12-16T15:50:42.849Z,23.52
2022-12-16T15:52:06.534Z,21.70
2022-12-16T15:53:45.377Z,22.23
2022-12-16T15:55:12.982Z,26.50
2022-12-16T15:56:56.288Z,23.05
2022-12-16T15:58:17.042Z,22.65
2022-12-16T15:59:42.217Z,22.70
2022-12-16T16:01:15.077Z,26.00
2022-12-16T16:02:39.966Z,29.35
2022-12-16T16:04:06.796Z,24.65
2022-12-16T16:05:49.785Z,25.27
2022-12-16T16:07:11.064Z,22.80
2022-12-16T16:08:31.687Z,22.55
2022-12-16T16:09:53.071Z,21.95
2022-12-16T16:11:15.367Z,23.92
2022-12-16T16:12:36.803Z,26.73
2022-12-16T16:14:00.992Z,27.55
2022-12-16T16:15:26.317Z,28.05
2022-12-16T16:16:46.869Z,26.70
2022-12-16T16:18:09.393Z,24.92
2022-12-16T16:19:34.964Z,28.63
2022-12-16T16:20:55.259Z,30.00
2022-12-16T16:22:15.544Z,28.10
2022-12-16T16:23:35.893Z,31.92
2022-12-16T16:24:56.663Z,28.67
2022-12-16T16:26:16.890Z,31.45
2022-12-16T16:27:37.400Z,28.23
2022-12-16T16:28:57.973Z,29.73
2022-12-16T16:30:20.167Z,31.80
2022-12-16T16:31:40.809Z,28.65
2022-12-16T16:33:01.829Z,29.63
2022-12-16T16:34:22.166Z,31.30
2022-12-16T16:35:42.381Z,29.67
2022-12-16T16:37:03.023Z,32.35
2022-12-16T16:38:24.162Z,46.67
2022-12-16T16:39:44.479Z,41.20
2022-12-16T16:41:04.567Z,50.95
2022-12-16T16:42:24.785Z,43.22
2022-12-16T16:43:45.395Z,35.83
2022-12-16T16:45:06.494Z,32.47
2022-12-16T16:46:36.287Z,35.85
2022-12-16T16:47:56.793Z,35.83
2022-12-16T16:49:17.301Z,35.58
2022-12-16T16:50:37.828Z,29.55
2022-12-16T16:51:57.915Z,27.20
2022-12-16T16:53:18.571Z,43.25
2022-12-16T16:54:38.867Z,50.47
2022-12-16T16:56:00.045Z,37.17
2022-12-16T16:57:22.975Z,24.52
2022-12-16T16:58:47.071Z,23.83
2022-12-16T17:00:07.557Z,23.65
2022-12-16T17:01:31.452Z,23.77
2022-12-16T17:03:08.900Z,24.98
2022-12-16T17:04:36.570Z,23.45
2022-12-16T17:05:56.747Z,22.90
2022-12-16T17:07:16.762Z,23.55
2022-12-16T17:08:37.111Z,22.42
2022-12-16T17:09:57.801Z,23.55
2022-12-16T17:11:18.287Z,24.27
2022-12-16T17:12:40.096Z,23.75
2022-12-16T17:14:00.037Z,22.95
2022-12-16T17:15:20.048Z,23.77
2022-12-16T17:16:40.605Z,22.55
2022-12-16T17:18:00.983Z,23.08
2022-12-16T17:19:24.772Z,23.00
2022-12-16T17:20:44.979Z,26.38
2022-12-16T17:22:05.304Z,24.33
2022-12-16T17:23:25.581Z,24.20
2022-12-16T17:24:49.350Z,22.65
2022-12-16T17:26:11.769Z,24.02
2022-12-16T17:27:34.383Z,23.92
2022-12-16T17:28:54.703Z,26.55
2022-12-16T17:30:15.248Z,22.70
2022-12-16T17:31:35.811Z,24.55
2022-12-16T17:32:56.502Z,24.10
2022-12-16T17:34:21.100Z,22.80
2022-12-16T17:35:45.964Z,22.30
2022-12-16T17:37:05.924Z,23.70
2022-12-16T17:38:27.508Z,24.42
2022-12-16T17:39:48.167Z,26.33
2022-12-16T17:41:11.595Z,26.25
2022-12-16T17:42:31.685Z,23.10
2022-12-16T17:43:52.030Z,23.40
2022-12-16T17:45:12.276Z,24.23
2022-12-16T17:46:32.657Z,28.73
2022-12-16T17:47:52.910Z,30.95
2022-12-16T17:49:15.143Z,25.50
2022-12-16T17:50:36.121Z,24.45
2022-12-16T17:51:56.410Z,31.30
2022-12-16T17:53:17.318Z,28.48
2022-12-16T17:54:40.444Z,23.15
2022-12-16T17:56:01.935Z,21.88
2022-12-16T17:57:22.240Z,22.20
2022-12-16T17:58:48.372Z,21.60
2022-12-16T18:00:09.083Z,21.85
2022-12-16T18:01:29.256Z,20.98
2022-12-16T18:02:49.763Z,20.35
2022-12-16T18:04:10.409Z,20.17
2022-12-16T18:05:37.615Z,21.52
2022-12-16T18:07:01.697Z,19.85
2022-12-16T18:08:21.681Z,20.98
2022-12-16T18:09:41.611Z,21.30
2022-12-16T18:11:01.671Z,22.50
2022-12-16T18:12:21.828Z,22.17
2022-12-16T18:13:42.204Z,21.63
2022-12-16T18:15:02.539Z,21.15
2022-12-16T18:16:22.677Z,18.33
2022-12-16T18:17:43.108Z,19.17
2022-12-16T18:19:07.410Z,18.38
2022-12-16T18:20:27.813Z,19.17
2022-12-16T18:21:47.883Z,17.85
2022-12-16T18:23:10.924Z,16.95
2022-12-16T18:24:30.847Z,18.92
2022-12-16T18:29:52.195Z,19.70
2022-12-16T18:31:12.973Z,18.92
2022-12-16T18:32:35.212Z,22.35
2022-12-16T18:33:55.855Z,19.38
2022-12-16T18:35:16.041Z,18.75
2022-12-16T18:36:36.745Z,19.05
2022-12-16T18:37:57.087Z,18.17
2022-12-16T18:39:17.540Z,17.38
2022-12-16T18:40:38.005Z,18.60
2022-12-16T18:42:04.089Z,19.45
2022-12-16T18:43:24.077Z,16.83
2022-12-16T18:44:44.189Z,18.33
2022-12-16T18:46:10.175Z,18.02
2022-12-16T18:47:30.628Z,18.25
2022-12-16T18:48:50.807Z,21.27
2022-12-16T18:50:11.103Z,19.50
2022-12-16T18:51:31.459Z,16.60
2022-12-16T18:52:51.696Z,19.15
2022-12-16T18:54:11.723Z,18.90
2022-12-16T18:55:31.799Z,17.92
2022-12-16T18:56:51.856Z,21.77
2022-12-16T18:58:34.856Z,21.30
2022-12-16T18:59:52.607Z,22.02
2022-12-16T19:01:20.181Z,22.20
2022-12-16T19:02:40.950Z,23.45
2022-12-16T19:04:01.107Z,21.42
2022-12-16T19:05:21.239Z,22.15
2022-12-16T19:06:41.269Z,17.63
2022-12-16T19:08:01.186Z,17.77
2022-12-16T19:09:21.112Z,18.15
2022-12-16T19:10:41.046Z,18.40
2022-12-16T19:12:01.216Z,16.30
2022-12-16T19:13:21.547Z,17.83
2022-12-16T19:14:41.523Z,17.45
2022-12-16T19:16:01.970Z,18.45
2022-12-16T19:17:22.269Z,17.52
2022-12-16T19:18:42.784Z,18.25
2022-12-16T19:20:02.817Z,18.25
2022-12-16T19:21:22.999Z,19.48
2022-12-16T19:22:43.108Z,17.55
2022-12-16T19:24:03.284Z,17.48
2022-12-16T19:25:23.203Z,18.33
2022-12-16T19:26:43.734Z,19.00
2022-12-16T19:28:04.029Z,18.85
2022-12-16T19:29:24.159Z,19.00
2022-12-16T19:30:44.560Z,18.45
2022-12-16T20:54:09.124Z,19.25
2022-12-16T20:55:29.214Z,20.13
2022-12-16T20:56:49.331Z,22.40
2022-12-16T20:58:09.679Z,21.65
2022-12-16T20:59:29.929Z,23.55
2022-12-16T21:00:50.039Z,24.42
2022-12-16T21:02:30.339Z,24.50
2022-12-16T21:03:50.362Z,21.83
2022-12-16T21:05:10.365Z,25.00
2022-12-16T21:06:31.745Z,23.98
2022-12-16T21:07:52.373Z,20.45
2022-12-16T21:09:13.489Z,23.40
2022-12-16T21:10:33.956Z,22.80
2022-12-16T21:11:54.152Z,21.75
2022-12-16T21:13:23.727Z,22.90
2022-12-16T21:14:43.751Z,22.17
2022-12-16T21:16:04.296Z,23.52
2022-12-16T21:17:24.621Z,24.17
2022-12-16T21:18:44.649Z,23.67
2022-12-16T21:20:04.848Z,22.65
2022-12-16T21:21:25.348Z,22.08
2022-12-16T21:22:45.441Z,22.13
2022-12-16T21:24:06.070Z,21.58
2022-12-16T21:25:26.529Z,20.88
2022-12-16T21:26:46.880Z,21.95
2022-12-16T21:28:07.247Z,26.38
2022-12-16T21:29:27.548Z,28.70
2022-12-16T21:30:47.731Z,27.20
2022-12-16T21:32:08.333Z,30.40
2022-12-16T21:33:36.178Z,29.10
2022-12-16T21:34:56.533Z,26.15
2022-12-16T21:36:16.948Z,25.33
2022-12-16T21:37:37.086Z,25.00
2022-12-16T21:38:57.206Z,24.60
2022-12-16T21:40:17.593Z,26.67
2022-12-16T21:41:37.566Z,24.80
2022-12-16T21:42:57.403Z,25.83
2022-12-16T21:44:17.644Z,24.08
2022-12-16T21:45:37.811Z,24.88
2022-12-16T21:46:58.185Z,23.35
2022-12-16T21:48:18.755Z,24.90
2022-12-16T21:49:42.034Z,24.33
2022-12-16T21:51:02.045Z,23.83
2022-12-16T21:52:22.231Z,24.10
2022-12-16T21:53:42.873Z,26.15
2022-12-16T21:55:03.905Z,29.98
2022-12-16T21:56:27.541Z,28.67
2022-12-16T21:57:48.972Z,26.48
2022-12-16T21:59:13.827Z,26.35
2022-12-16T22:00:34.551Z,23.10
2022-12-16T22:01:54.744Z,23.23
2022-12-16T22:03:16.960Z,24.00
2022-12-16T22:04:39.151Z,24.17
2022-12-16T22:05:59.496Z,22.90
2022-12-16T22:07:19.932Z,21.48
2022-12-16T22:08:40.342Z,21.33
2022-12-16T22:10:00.400Z,20.63
2022-12-16T22:11:27.198Z,21.63
2022-12-16T22:12:47.463Z,21.48
2022-12-16T22:14:07.421Z,21.67
2022-12-16T22:15:28.006Z,22.58
2022-12-16T22:16:48.692Z,20.55
2022-12-16T22:18:09.033Z,22.92
2022-12-16T22:19:43.500Z,21.35
2022-12-16T22:21:03.508Z,20.40
2022-12-16T22:22:23.798Z,21.15
2022-12-16T22:23:49.929Z,21.55
2022-12-16T22:26:50.469Z,21.17
2022-12-16T22:28:10.629Z,22.27
2022-12-16T22:29:31.152Z,21.77
2022-12-16T22:30:51.580Z,21.92
2022-12-16T22:32:12.080Z,21.98
2022-12-16T22:33:32.259Z,19.85
2022-12-16T22:34:52.541Z,18.92
2022-12-16T22:36:18.141Z,20.98
2022-12-16T22:37:38.292Z,20.45
2022-12-16T22:38:58.666Z,21.10
2022-12-16T22:40:19.218Z,21.63
2022-12-16T22:41:39.131Z,21.38
2022-12-16T22:42:59.180Z,22.35
2022-12-16T22:44:20.277Z,21.08
2022-12-16T22:45:40.286Z,22.73
2022-12-16T22:47:01.002Z,21.65
2022-12-16T22:48:21.205Z,20.30
2022-12-16T22:49:41.128Z,20.92
2022-12-16T22:51:01.383Z,21.45
2022-12-16T22:52:21.449Z,21.10
2022-12-16T22:53:41.689Z,19.83
2022-12-16T22:55:02.607Z,18.00
2022-12-16T22:56:22.591Z,19.38
2022-12-16T22:57:42.859Z,20.63
2022-12-16T22:59:02.842Z,19.67
2022-12-16T23:00:23.712Z,19.73
2022-12-16T23:01:43.897Z,19.88
2022-12-16T23:03:04.267Z,20.17
2022-12-16T23:04:24.672Z,19.75
2022-12-16T23:05:44.900Z,19.67
2022-12-16T23:07:04.871Z,21.08
2022-12-16T23:08:24.876Z,21.90
2022-12-16T23:09:44.879Z,20.70
2022-12-16T23:11:11.626Z,21.23
2022-12-16T23:12:31.909Z,21.17
2022-12-16T23:13:52.163Z,20.38
2022-12-16T23:15:13.339Z,22.70
2022-12-16T23:16:33.924Z,21.55
2022-12-16T23:17:53.941Z,21.30
2022-12-16T23:19:16.707Z,20.95
2022-12-16T23:20:36.968Z,17.25
2022-12-16T23:21:56.940Z,17.42
2022-12-16T23:23:16.868Z,17.98
